createdAt,value
2019-02-19T00:03:07.830Z,10.20
2019-02-19T00:05:18.671Z,9.83
2019-02-19T00:07:29.525Z,10.20
2019-02-19T00:09:40.317Z,10.13
2019-02-19T00:11:51.132Z,10.40
2019-02-19T00:14:01.943Z,9.77
2019-02-19T00:16:12.779Z,10.13
2019-02-19T00:18:23.582Z,10.50
2019-02-19T00:20:34.428Z,8.87
2019-02-19T00:22:45.247Z,9.33
2019-02-19T00:24:56.057Z,9.40
2019-02-19T00:27:06.879Z,10.07
2019-02-19T00:29:17.669Z,10.13
2019-02-19T00:31:28.485Z,9.97
2019-02-19T00:33:39.288Z,10.17
2019-02-19T00:35:50.093Z,10.07
2019-02-19T00:38:00.913Z,9.87
2019-02-19T00:40:11.717Z,10.00
2019-02-19T00:42:22.526Z,8.60
2019-02-19T00:44:33.337Z,9.03
2019-02-19T00:46:44.146Z,9.23
2019-02-19T00:48:54.945Z,9.63
2019-02-19T00:51:05.843Z,10.57
2019-02-19T00:53:16.653Z,10.10
2019-02-19T00:55:27.472Z,9.77
2019-02-19T00:57:38.290Z,10.53
2019-02-19T00:59:49.107Z,8.70
2019-02-19T01:01:59.917Z,9.83
2019-02-19T01:04:10.743Z,9.40
2019-02-19T01:06:21.552Z,9.30
2019-02-19T01:08:32.370Z,9.90
2019-02-19T01:10:43.158Z,9.17
2019-02-19T01:12:54.005Z,9.67
2019-02-19T01:15:26.566Z,9.20
2019-02-19T01:17:37.399Z,9.37
2019-02-19T01:19:48.209Z,9.03
2019-02-19T01:21:58.998Z,10.13
2019-02-19T01:24:09.835Z,9.13
2019-02-19T01:26:20.621Z,9.67
2019-02-19T01:28:31.430Z,9.50
2019-02-19T01:30:42.229Z,9.03
2019-02-19T01:32:53.027Z,9.23
2019-02-19T01:35:45.489Z,9.13
2019-02-19T01:37:56.291Z,7.90
2019-02-19T01:40:48.760Z,9.40
2019-02-19T01:42:59.548Z,9.30
2019-02-19T01:45:10.366Z,8.83
2019-02-19T01:47:41.053Z,8.63
2019-02-19T01:49:51.869Z,9.87
2019-02-19T01:52:02.654Z,9.20
2019-02-19T01:54:13.471Z,8.77
2019-02-19T01:56:24.269Z,9.10
2019-02-19T01:58:35.093Z,9.20
2019-02-19T02:00:45.901Z,8.30
2019-02-19T02:02:56.794Z,9.43
2019-02-19T02:05:07.699Z,8.73
2019-02-19T02:07:18.499Z,9.10
2019-02-19T02:09:29.318Z,9.20
2019-02-19T02:11:40.146Z,9.00
2019-02-19T02:13:50.958Z,8.53
2019-02-19T02:16:01.866Z,8.80
2019-02-19T02:18:12.657Z,8.70
2019-02-19T02:20:23.497Z,8.87
2019-02-19T02:22:34.421Z,8.40
2019-02-19T02:24:45.228Z,8.10
2019-02-19T02:26:56.052Z,8.33
2019-02-19T02:29:06.841Z,8.03
2019-02-19T02:31:17.650Z,8.50
2019-02-19T02:33:28.446Z,8.37
2019-02-19T02:35:39.270Z,8.57
2019-02-19T02:37:50.064Z,8.90
2019-02-19T02:40:01.056Z,8.53
2019-02-19T02:42:11.899Z,9.53
2019-02-19T02:44:22.668Z,9.33
2019-02-19T02:46:33.486Z,9.60
2019-02-19T02:48:44.270Z,7.97
2019-02-19T02:50:55.092Z,8.70
2019-02-19T02:53:05.887Z,9.87
2019-02-19T02:55:16.843Z,8.73
2019-02-19T02:57:27.660Z,8.70
2019-02-19T02:59:38.484Z,8.93
2019-02-19T03:01:49.398Z,8.83
2019-02-19T03:04:20.097Z,8.73
2019-02-19T03:08:49.928Z,9.50
2019-02-19T03:11:00.733Z,8.37
2019-02-19T03:13:11.549Z,8.50
2019-02-19T03:15:22.349Z,8.07
2019-02-19T03:17:33.155Z,8.67
2019-02-19T03:19:43.970Z,8.97
2019-02-19T03:21:54.771Z,8.40
2019-02-19T03:24:05.569Z,8.90
2019-02-19T03:26:16.351Z,8.27
2019-02-19T03:28:27.169Z,8.47
2019-02-19T03:30:37.977Z,8.23
2019-02-19T03:32:48.793Z,9.27
2019-02-19T03:34:59.572Z,9.97
2019-02-19T03:37:10.403Z,8.70
2019-02-19T03:39:21.186Z,9.80
2019-02-19T03:41:32.101Z,10.13
2019-02-19T03:43:42.934Z,10.10
2019-02-19T03:45:53.736Z,10.03
2019-02-19T03:48:04.547Z,10.23
2019-02-19T03:50:15.347Z,9.97
2019-02-19T03:52:26.157Z,10.10
2019-02-19T03:54:36.971Z,9.43
2019-02-19T03:56:47.803Z,10.33
2019-02-19T03:58:58.610Z,9.53
2019-02-19T04:01:09.538Z,9.87
2019-02-19T04:03:20.370Z,10.23
2019-02-19T04:05:31.156Z,10.20
2019-02-19T04:07:41.947Z,10.27
2019-02-19T04:09:52.768Z,10.93
2019-02-19T04:12:03.572Z,10.10
2019-02-19T04:14:14.377Z,10.03
2019-02-19T04:16:25.283Z,10.37
2019-02-19T04:18:36.083Z,10.37
2019-02-19T04:20:46.889Z,10.20
2019-02-19T04:22:57.684Z,10.57
2019-02-19T04:25:08.496Z,11.27
2019-02-19T04:28:00.947Z,10.93
2019-02-19T04:30:11.768Z,11.00
2019-02-19T04:32:22.556Z,10.33
2019-02-19T04:34:33.361Z,10.90
2019-02-19T04:36:44.154Z,10.23
2019-02-19T04:38:54.946Z,10.73
2019-02-19T04:41:05.756Z,10.67
2019-02-19T04:43:16.540Z,10.23
2019-02-19T04:45:27.368Z,11.13
2019-02-19T04:47:38.158Z,9.63
2019-02-19T04:49:48.979Z,10.77
2019-02-19T04:51:59.762Z,10.40
2019-02-19T04:54:10.565Z,11.07
2019-02-19T04:56:21.406Z,9.63
2019-02-19T04:58:32.189Z,11.00
2019-02-19T05:00:43.025Z,10.27
2019-02-19T05:02:53.824Z,10.63
2019-02-19T05:05:46.285Z,10.90
2019-02-19T05:07:57.087Z,10.53
2019-02-19T05:10:08.115Z,10.93
2019-02-19T05:12:18.913Z,10.80
2019-02-19T05:14:29.698Z,10.83
2019-02-19T05:16:41.258Z,11.30
2019-02-19T05:21:25.588Z,11.23
2019-02-19T05:23:36.380Z,10.80
2019-02-19T05:25:47.193Z,10.87
2019-02-19T05:27:57.990Z,10.20
2019-02-19T05:30:50.443Z,10.50
2019-02-19T05:33:01.268Z,9.97
2019-02-19T05:35:12.059Z,10.43
2019-02-19T05:37:22.875Z,10.73
2019-02-19T05:39:33.676Z,10.63
2019-02-19T05:41:44.493Z,10.07
2019-02-19T05:43:55.291Z,10.40
2019-02-19T05:46:06.123Z,10.50
2019-02-19T05:48:17.011Z,10.67
2019-02-19T05:50:27.809Z,10.60
2019-02-19T05:52:38.621Z,10.50
2019-02-19T05:54:50.634Z,11.90
2019-02-19T05:57:21.444Z,13.73
2019-02-19T05:59:32.616Z,9.67
2019-02-19T06:01:45.029Z,9.93
2019-02-19T06:03:55.833Z,10.77
2019-02-19T06:06:06.631Z,9.30
2019-02-19T06:08:17.436Z,9.03
2019-02-19T06:10:28.238Z,8.53
2019-02-19T06:12:39.052Z,8.07
2019-02-19T06:14:49.845Z,6.57
2019-02-19T06:17:00.682Z,8.30
2019-02-19T06:19:11.595Z,8.30
2019-02-19T06:21:22.439Z,7.70
2019-02-19T06:23:33.276Z,7.87
2019-02-19T06:25:44.075Z,8.17
2019-02-19T06:27:54.949Z,8.87
2019-02-19T06:30:25.616Z,9.60
2019-02-19T06:32:36.425Z,9.57
2019-02-19T06:34:47.219Z,9.90
2019-02-19T06:36:58.019Z,8.83
2019-02-19T06:39:08.854Z,10.27
2019-02-19T06:41:19.657Z,9.33
2019-02-19T06:43:30.504Z,9.67
2019-02-19T06:45:41.301Z,9.47
2019-02-19T06:47:52.119Z,9.73
2019-02-19T06:50:44.571Z,9.93
2019-02-19T06:52:55.389Z,8.63
2019-02-19T06:55:06.216Z,8.87
2019-02-19T06:57:17.006Z,9.07
2019-02-19T06:59:27.925Z,9.03
2019-02-19T07:06:30.763Z,9.23
2019-02-19T07:08:42.770Z,9.30
2019-02-19T07:10:53.572Z,8.90
2019-02-19T07:13:04.382Z,9.27
2019-02-19T07:15:15.300Z,8.33
2019-02-19T07:17:26.102Z,7.73
2019-02-19T07:19:36.945Z,7.10
2019-02-19T07:21:47.730Z,6.27
2019-02-19T07:24:04.378Z,6.47
2019-02-19T07:26:11.249Z,6.97
2019-02-19T07:28:22.060Z,6.60
2019-02-19T07:30:32.880Z,5.67
2019-02-19T07:32:43.719Z,6.10
2019-02-19T07:34:54.531Z,5.40
2019-02-19T07:37:05.400Z,5.47
2019-02-19T07:39:16.199Z,6.27
2019-02-19T07:41:27.025Z,6.13
2019-02-19T07:43:37.854Z,5.00
2019-02-19T07:45:48.662Z,5.37
2019-02-19T07:47:59.454Z,4.90
2019-02-19T07:50:51.920Z,5.03
2019-02-19T07:53:02.728Z,5.07
2019-02-19T07:55:13.582Z,4.40
2019-02-19T07:57:24.365Z,4.23
2019-02-19T07:59:35.235Z,5.10
2019-02-19T08:01:46.007Z,4.47
2019-02-19T08:03:56.835Z,5.30
2019-02-19T08:06:07.658Z,5.33
2019-02-19T08:08:18.525Z,4.90
2019-02-19T08:10:29.346Z,4.87
2019-02-19T08:12:40.161Z,4.57
2019-02-19T08:14:50.973Z,4.93
2019-02-19T08:17:01.782Z,5.83
2019-02-19T08:19:12.599Z,6.00
2019-02-19T08:21:23.475Z,6.37
2019-02-19T08:23:34.261Z,5.50
2019-02-19T08:25:45.065Z,5.47
2019-02-19T08:27:55.891Z,5.07
2019-02-19T08:30:48.399Z,5.00
2019-02-19T08:32:59.206Z,5.23
2019-02-19T08:35:10.009Z,4.30
2019-02-19T08:37:20.827Z,5.47
2019-02-19T08:39:31.618Z,5.00
2019-02-19T08:41:42.525Z,4.73
2019-02-19T08:43:53.328Z,4.90
2019-02-19T08:46:04.137Z,4.87
2019-02-19T08:48:14.948Z,4.10
2019-02-19T08:50:25.838Z,4.47
2019-02-19T08:52:36.669Z,4.47
2019-02-19T08:54:47.456Z,4.33
2019-02-19T08:56:58.311Z,4.23
2019-02-19T08:59:09.093Z,4.30
2019-02-19T09:01:19.908Z,4.37
2019-02-19T09:03:30.727Z,4.20
2019-02-19T09:05:41.534Z,3.73
2019-02-19T09:07:52.342Z,4.10
2019-02-19T09:10:24.910Z,4.23
2019-02-19T09:12:35.746Z,3.63
2019-02-19T09:14:46.550Z,3.90
2019-02-19T09:16:57.456Z,4.13
2019-02-19T09:19:08.269Z,4.03
2019-02-19T09:21:19.116Z,4.00
2019-02-19T09:23:29.938Z,4.67
2019-02-19T09:25:40.731Z,4.13
2019-02-19T09:27:51.588Z,4.67
2019-02-19T09:30:44.017Z,4.57
2019-02-19T09:32:54.838Z,4.47
2019-02-19T09:35:47.309Z,4.13
2019-02-19T09:37:58.156Z,4.33
2019-02-19T09:40:50.588Z,4.50
2019-02-19T09:43:01.418Z,4.80
2019-02-19T09:45:12.315Z,4.50
2019-02-19T09:47:23.120Z,5.20
2019-02-19T09:49:33.921Z,4.73
2019-02-19T09:54:36.952Z,4.33
2019-02-19T09:56:47.745Z,4.33
2019-02-19T09:58:58.572Z,4.70
2019-02-19T10:01:09.378Z,5.23
2019-02-19T10:05:52.546Z,4.77
2019-02-19T10:08:03.352Z,5.00
2019-02-19T10:10:55.823Z,4.67
2019-02-19T10:13:06.645Z,5.10
2019-02-19T10:15:17.449Z,4.93
2019-02-19T10:17:28.247Z,4.30
2019-02-19T10:19:39.075Z,4.83
2019-02-19T10:21:49.881Z,4.20
2019-02-19T10:24:00.713Z,4.33
2019-02-19T10:26:11.532Z,5.10
2019-02-19T10:28:22.332Z,5.50
2019-02-19T10:30:33.146Z,5.77
2019-02-19T10:32:43.959Z,5.30
2019-02-19T10:34:54.756Z,5.70
2019-02-19T10:37:05.653Z,5.70
2019-02-19T10:39:16.452Z,6.53
2019-02-19T10:41:27.273Z,5.80
2019-02-19T10:43:38.055Z,6.43
2019-02-19T10:45:48.987Z,5.90
2019-02-19T10:47:59.768Z,5.80
2019-02-19T10:50:10.660Z,5.60
2019-02-19T10:52:21.615Z,4.60
2019-02-19T10:54:32.413Z,6.63
2019-02-19T10:56:50.246Z,5.97
2019-02-19T10:59:01.048Z,5.87
2019-02-19T11:01:11.969Z,5.80
2019-02-19T11:03:22.777Z,5.10
2019-02-19T11:05:33.590Z,5.60
2019-02-19T11:07:44.400Z,6.07
2019-02-19T11:09:55.207Z,6.00
2019-02-19T11:12:06.021Z,5.90
2019-02-19T11:14:16.809Z,5.50
2019-02-19T11:16:27.658Z,4.80
2019-02-19T11:18:38.449Z,4.97
2019-02-19T11:20:49.271Z,5.03
2019-02-19T11:23:00.112Z,5.30
2019-02-19T11:25:52.578Z,5.10
2019-02-19T11:28:03.385Z,5.73
2019-02-19T11:30:55.860Z,5.73
2019-02-19T11:33:06.675Z,5.57
2019-02-19T11:35:17.477Z,6.17
2019-02-19T11:37:28.291Z,7.00
2019-02-19T11:39:39.086Z,6.60
2019-02-19T11:41:49.922Z,6.53
2019-02-19T11:44:00.737Z,6.20
2019-02-19T11:46:11.530Z,6.60
2019-02-19T11:48:22.344Z,6.90
2019-02-19T11:50:33.157Z,6.67
2019-02-19T11:52:43.992Z,6.93
2019-02-19T11:54:54.800Z,6.73
2019-02-19T11:57:05.597Z,7.10
2019-02-19T11:59:16.420Z,6.50
2019-02-19T12:01:27.220Z,6.73
2019-02-19T12:03:38.039Z,7.17
2019-02-19T12:05:48.918Z,6.80
2019-02-19T12:07:59.738Z,6.40
2019-02-19T12:10:12.030Z,6.00
2019-02-19T12:12:23.375Z,5.73
2019-02-19T12:14:34.265Z,5.87
2019-02-19T12:16:45.060Z,5.53
2019-02-19T12:18:55.912Z,5.70
2019-02-19T12:21:06.726Z,5.40
2019-02-19T12:23:17.567Z,6.00
2019-02-19T12:25:28.368Z,6.20
2019-02-19T12:27:39.185Z,6.30
2019-02-19T12:29:50.009Z,6.60
2019-02-19T12:32:00.817Z,6.13
2019-02-19T12:34:11.645Z,6.30
2019-02-19T12:36:22.460Z,6.70
2019-02-19T12:38:33.265Z,5.90
2019-02-19T12:40:44.086Z,6.80
2019-02-19T12:42:54.875Z,6.83
2019-02-19T12:45:47.355Z,6.40
2019-02-19T12:47:58.167Z,7.10
2019-02-19T12:50:50.633Z,6.40
2019-02-19T12:53:01.435Z,7.37
2019-02-19T12:55:12.344Z,7.57
2019-02-19T12:57:23.125Z,7.63
2019-02-19T12:59:33.939Z,7.40
2019-02-19T13:01:44.762Z,6.83
2019-02-19T13:03:55.585Z,6.70
2019-02-19T13:06:06.403Z,6.97
2019-02-19T13:08:17.199Z,7.87
2019-02-19T13:10:27.997Z,7.17
2019-02-19T13:12:38.813Z,7.20
2019-02-19T13:14:49.619Z,7.20
2019-02-19T13:17:00.449Z,7.37
2019-02-19T13:19:11.254Z,6.63
2019-02-19T13:21:22.070Z,7.80
2019-02-19T13:23:32.876Z,8.53
2019-02-19T13:25:43.687Z,8.67
2019-02-19T13:27:54.521Z,8.27
2019-02-19T13:30:46.998Z,8.17
2019-02-19T13:32:57.801Z,8.77
2019-02-19T13:35:50.762Z,7.87
2019-02-19T13:38:01.596Z,8.13
2019-02-19T13:40:54.069Z,7.57
2019-02-19T13:43:04.891Z,8.97
2019-02-19T13:45:15.799Z,9.10
2019-02-19T13:47:26.637Z,8.73
2019-02-19T13:49:37.454Z,8.23
2019-02-19T13:51:48.391Z,8.20
2019-02-19T13:54:19.096Z,8.83
2019-02-19T13:56:29.893Z,8.43
2019-02-19T13:58:40.721Z,8.53
2019-02-19T14:00:51.515Z,8.60
2019-02-19T14:03:02.449Z,8.50
2019-02-19T14:05:13.272Z,8.83
2019-02-19T14:07:24.139Z,8.43
2019-02-19T14:09:34.985Z,9.77
2019-02-19T14:11:45.809Z,9.27
2019-02-19T14:18:54.448Z,8.93
2019-02-19T14:23:57.485Z,8.97
2019-02-19T14:26:28.183Z,9.37
2019-02-19T14:28:58.880Z,9.13
2019-02-19T14:31:29.570Z,9.57
2019-02-19T14:34:00.264Z,9.80
2019-02-19T14:36:30.942Z,8.87
2019-02-19T14:39:01.639Z,9.60
2019-02-19T14:41:32.414Z,8.57
2019-02-19T14:44:03.133Z,8.83
2019-02-19T14:46:33.799Z,9.40
2019-02-19T14:49:04.510Z,9.73
2019-02-19T14:54:07.570Z,9.23
2019-02-19T14:56:38.268Z,9.73
2019-02-19T15:01:41.311Z,8.73
2019-02-19T15:04:12.025Z,9.80
2019-02-19T15:06:42.724Z,9.57
2019-02-19T15:09:13.405Z,9.90
2019-02-19T15:11:44.124Z,9.90
2019-02-19T15:14:14.808Z,10.27
2019-02-19T15:16:45.499Z,9.57
2019-02-19T15:19:19.907Z,10.00
2019-02-19T15:24:07.418Z,8.70
2019-02-19T15:28:57.185Z,9.10
2019-02-19T15:31:27.869Z,10.07
2019-02-19T15:33:58.562Z,10.20
2019-02-19T15:36:29.348Z,10.50
2019-02-19T15:39:00.018Z,10.43
2019-02-19T15:41:30.728Z,12.00
2019-02-19T15:44:01.416Z,11.33
2019-02-19T15:49:04.585Z,12.07
2019-02-19T15:51:35.272Z,10.47
2019-02-19T15:56:38.353Z,11.70
2019-02-19T15:59:09.121Z,10.87
2019-02-19T16:06:30.596Z,10.13
2019-02-19T16:11:33.728Z,10.70
2019-02-19T16:14:04.435Z,10.37
2019-02-19T16:19:07.614Z,10.37
2019-02-19T16:21:38.306Z,10.17
2019-02-19T16:24:09.002Z,9.17
2019-02-19T16:33:49.709Z,8.97
2019-02-19T16:38:52.809Z,9.80
2019-02-19T16:41:23.597Z,8.73
2019-02-19T16:43:54.308Z,9.27
2019-02-19T16:48:57.373Z,9.17
2019-02-19T16:51:28.058Z,9.70
2019-02-19T16:53:58.754Z,9.90
2019-02-19T16:56:29.937Z,9.97
2019-02-19T16:59:07.232Z,9.60
2019-02-19T17:01:33.247Z,8.70
2019-02-19T17:04:03.976Z,9.20
2019-02-19T17:09:07.069Z,8.67
2019-02-19T17:13:58.538Z,9.23
2019-02-19T17:16:28.912Z,10.27
2019-02-19T17:18:59.604Z,10.07
2019-02-19T17:21:30.327Z,9.60
2019-02-19T17:31:10.662Z,10.00
2019-02-19T17:33:41.359Z,10.07
2019-02-19T17:36:12.063Z,10.80
2019-02-19T17:38:42.750Z,11.37
2019-02-19T17:45:51.106Z,10.23
2019-02-19T17:48:21.793Z,9.90
2019-02-19T17:53:14.924Z,10.23
2019-02-19T18:02:55.394Z,12.50
2019-02-19T18:05:26.174Z,12.67
2019-02-19T18:07:56.878Z,12.10
2019-02-19T18:10:27.676Z,11.33
2019-02-19T18:15:17.398Z,11.30
2019-02-19T18:17:48.225Z,11.83
2019-02-19T18:19:59.041Z,11.53
2019-02-19T18:22:09.896Z,11.00
2019-02-19T18:24:21.027Z,10.57
2019-02-19T18:26:53.563Z,10.63
2019-02-19T18:29:04.386Z,10.40
2019-02-19T18:31:15.185Z,11.23
2019-02-19T18:33:26.021Z,11.00
2019-02-19T18:35:36.919Z,11.87
2019-02-19T18:37:47.757Z,11.53
2019-02-19T18:39:58.584Z,12.27
2019-02-19T18:42:09.414Z,11.23
2019-02-19T18:44:20.245Z,12.67
2019-02-19T18:46:31.048Z,11.47
2019-02-19T18:48:41.870Z,10.63
2019-02-19T18:50:58.420Z,11.90
2019-02-19T18:53:05.569Z,10.63
2019-02-19T18:55:16.459Z,10.83
2019-02-19T18:57:27.264Z,10.97
2019-02-19T18:59:38.083Z,11.83
2019-02-19T19:01:48.889Z,11.60
2019-02-19T19:03:59.785Z,11.63
2019-02-19T19:06:10.575Z,11.40
2019-02-19T19:08:21.412Z,12.03
2019-02-19T19:10:32.379Z,11.13
2019-02-19T19:12:43.307Z,10.73
2019-02-19T19:14:54.176Z,11.13
2019-02-19T19:17:05.082Z,11.07
2019-02-19T19:19:15.930Z,11.10
2019-02-19T19:21:26.827Z,10.93
2019-02-19T19:23:37.659Z,11.57
2019-02-19T19:25:48.647Z,11.53
2019-02-19T19:27:59.437Z,11.23
2019-02-19T19:30:30.178Z,11.30
2019-02-19T19:32:40.982Z,11.70
2019-02-19T19:34:51.805Z,11.37
2019-02-19T19:37:02.650Z,11.50
2019-02-19T19:39:13.475Z,11.37
2019-02-19T19:41:24.311Z,10.90
2019-02-19T19:43:37.190Z,10.63
2019-02-19T19:45:47.887Z,11.00
2019-02-19T19:47:58.706Z,11.57
2019-02-19T19:50:31.328Z,11.20
2019-02-19T19:52:42.136Z,10.80
2019-02-19T19:54:52.932Z,11.13
2019-02-19T19:57:04.498Z,12.87
2019-02-19T19:59:16.493Z,14.23
2019-02-19T20:01:27.335Z,13.27
2019-02-19T20:03:38.226Z,12.13
2019-02-19T20:05:49.091Z,12.20
2019-02-19T20:08:00.028Z,12.57
2019-02-19T20:10:52.487Z,11.23
2019-02-19T20:13:03.410Z,10.93
2019-02-19T20:15:14.284Z,10.97
2019-02-19T20:17:25.107Z,10.10
2019-02-19T20:19:35.970Z,10.37
2019-02-19T20:21:46.890Z,9.20
2019-02-19T20:23:57.817Z,10.50
2019-02-19T20:26:08.649Z,9.77
2019-02-19T20:28:19.489Z,9.20
2019-02-19T20:30:30.301Z,9.20
2019-02-19T20:32:41.152Z,8.97
2019-02-19T20:34:52.052Z,8.73
2019-02-19T20:37:03.023Z,8.47
2019-02-19T20:39:13.833Z,8.43
2019-02-19T20:41:24.659Z,9.43
2019-02-19T20:43:35.521Z,8.80
2019-02-19T20:45:46.340Z,9.03
2019-02-19T20:47:57.179Z,9.67
2019-02-19T20:50:49.630Z,9.53
2019-02-19T20:53:00.465Z,9.87
2019-02-19T20:55:11.384Z,9.37
2019-02-19T20:57:22.218Z,9.90
2019-02-19T20:59:33.063Z,8.50
2019-02-19T21:01:43.896Z,9.73
2019-02-19T21:03:54.848Z,10.20
2019-02-19T21:06:05.676Z,8.93
2019-02-19T21:08:16.563Z,9.27
2019-02-19T21:10:27.377Z,10.50
2019-02-19T21:12:38.203Z,9.60
2019-02-19T21:14:49.039Z,9.90
2019-02-19T21:16:59.918Z,10.13
2019-02-19T21:19:10.759Z,10.00
2019-02-19T21:21:21.628Z,11.60
2019-02-19T21:23:32.459Z,11.50
2019-02-19T21:25:43.282Z,13.00
2019-02-19T21:27:54.108Z,10.43
2019-02-19T21:30:24.825Z,11.53
2019-02-19T21:32:35.667Z,12.00
2019-02-19T21:34:46.500Z,10.70
2019-02-19T21:36:57.349Z,10.90
2019-02-19T21:39:08.255Z,10.60
2019-02-19T21:41:19.091Z,10.80
2019-02-19T21:43:30.013Z,10.57
2019-02-19T21:45:40.885Z,11.37
2019-02-19T21:47:51.719Z,10.80
2019-02-19T21:50:44.207Z,8.53
2019-02-19T21:52:55.008Z,9.73
2019-02-19T21:55:47.515Z,9.13
2019-02-19T21:57:59.693Z,8.47
2019-02-19T22:00:52.659Z,8.40
2019-02-19T22:03:03.508Z,7.97
2019-02-19T22:05:14.351Z,8.30
2019-02-19T22:07:25.185Z,8.17
2019-02-19T22:09:35.968Z,8.23
2019-02-19T22:11:46.805Z,8.10
2019-02-19T22:13:57.596Z,7.90
2019-02-19T22:16:08.432Z,7.67
2019-02-19T22:18:19.219Z,8.10
2019-02-19T22:20:49.958Z,8.07
2019-02-19T22:23:00.764Z,7.63
2019-02-19T22:25:11.548Z,8.10
2019-02-19T22:27:22.370Z,8.50
2019-02-19T22:29:33.193Z,8.53
2019-02-19T22:31:44.050Z,8.53
2019-02-19T22:33:54.940Z,8.90
2019-02-19T22:36:05.822Z,8.73
2019-02-19T22:38:16.655Z,9.07
2019-02-19T22:40:27.486Z,8.93
2019-02-19T22:42:38.298Z,8.63
2019-02-19T22:44:49.104Z,8.70
2019-02-19T22:47:00.045Z,8.23
2019-02-19T22:49:10.850Z,8.53
2019-02-19T22:51:21.674Z,9.00
2019-02-19T22:53:52.358Z,8.93
2019-02-19T22:58:35.563Z,7.53
2019-02-19T23:03:38.705Z,7.77
2019-02-19T23:05:49.619Z,8.53
2019-02-19T23:08:00.448Z,9.03
2019-02-19T23:10:11.244Z,9.30
2019-02-19T23:12:22.037Z,9.23
2019-02-19T23:14:32.960Z,10.10
2019-02-19T23:16:43.753Z,9.07
2019-02-19T23:18:54.595Z,8.50
2019-02-19T23:21:05.439Z,9.17
2019-02-19T23:23:16.240Z,11.07
2019-02-19T23:25:27.106Z,10.83
2019-02-19T23:27:37.915Z,10.30
2019-02-19T23:29:48.731Z,10.00
2019-02-19T23:31:59.516Z,9.37
2019-02-19T23:34:10.336Z,8.83
2019-02-19T23:36:41.017Z,9.17
2019-02-19T23:38:51.846Z,9.93
2019-02-19T23:41:02.752Z,9.17
2019-02-19T23:43:13.536Z,9.63
2019-02-19T23:45:24.384Z,8.63
2019-02-19T23:47:35.189Z,9.47
2019-02-19T23:49:46.005Z,9.67
2019-02-19T23:51:56.805Z,9.40
2019-02-19T23:54:07.611Z,9.70
2019-02-19T23:56:18.412Z,9.73
2019-02-19T23:58:29.219Z,10.17
